sensor_id;sensor_type;location;lat;lon;timestamp;temperature;humidity
65568;DHT22;52211;50.154;8.682;2023-05-27T00:01:09;16.50;39.90
65568;DHT22;52211;50.154;8.682;2023-05-27T00:03:39;16.50;40.00
65568;DHT22;52211;50.154;8.682;2023-05-27T00:06:09;16.40;40.00
65568;DHT22;52211;50.154;8.682;2023-05-27T00:08:36;16.40;40.00
65568;DHT22;52211;50.154;8.682;2023-05-27T00:11:05;16.40;40.20
65568;DHT22;52211;50.154;8.682;2023-05-27T00:13:35;16.30;40.10
65568;DHT22;52211;50.154;8.682;2023-05-27T00:16:04;16.30;40.30
65568;DHT22;52211;50.154;8.682;2023-05-27T00:18:34;16.30;40.30
65568;DHT22;52211;50.154;8.682;2023-05-27T00:21:02;16.30;40.30
65568;DHT22;52211;50.154;8.682;2023-05-27T00:23:32;16.20;40.40
65568;DHT22;52211;50.154;8.682;2023-05-27T00:26:01;16.20;40.50
65568;DHT22;52211;50.154;8.682;2023-05-27T00:28:33;16.20;40.80
65568;DHT22;52211;50.154;8.682;2023-05-27T00:31:02;16.10;40.50
65568;DHT22;52211;50.154;8.682;2023-05-27T00:33:32;16.10;40.70
65568;DHT22;52211;50.154;8.682;2023-05-27T00:36:01;16.10;40.80
65568;DHT22;52211;50.154;8.682;2023-05-27T00:38:29;16.00;40.80
65568;DHT22;52211;50.154;8.682;2023-05-27T00:41:02;16.00;40.70
65568;DHT22;52211;50.154;8.682;2023-05-27T00:43:33;16.00;41.00
65568;DHT22;52211;50.154;8.682;2023-05-27T00:46:03;16.00;40.80
65568;DHT22;52211;50.154;8.682;2023-05-27T00:48:32;15.90;41.00
65568;DHT22;52211;50.154;8.682;2023-05-27T00:51:05;15.90;40.90
65568;DHT22;52211;50.154;8.682;2023-05-27T00:53:42;15.90;41.10
65568;DHT22;52211;50.154;8.682;2023-05-27T00:56:11;15.80;41.70
65568;DHT22;52211;50.154;8.682;2023-05-27T00:58:43;15.80;41.00
65568;DHT22;52211;50.154;8.682;2023-05-27T01:01:13;15.80;41.20
65568;DHT22;52211;50.154;8.682;2023-05-27T01:03:40;15.80;41.20
65568;DHT22;52211;50.154;8.682;2023-05-27T01:12:07;15.60;41.90
65568;DHT22;52211;50.154;8.682;2023-05-27T01:14:43;15.60;41.40
65568;DHT22;52211;50.154;8.682;2023-05-27T01:17:12;15.50;41.40
65568;DHT22;52211;50.154;8.682;2023-05-27T01:19:51;15.50;41.50
65568;DHT22;52211;50.154;8.682;2023-05-27T01:22:20;15.50;41.70
65568;DHT22;52211;50.154;8.682;2023-05-27T01:24:55;15.50;41.60
65568;DHT22;52211;50.154;8.682;2023-05-27T01:27:22;15.50;41.90
65568;DHT22;52211;50.154;8.682;2023-05-27T01:29:53;15.40;42.40
65568;DHT22;52211;50.154;8.682;2023-05-27T01:32:49;15.40;41.80
65568;DHT22;52211;50.154;8.682;2023-05-27T01:37:54;15.40;42.00
65568;DHT22;52211;50.154;8.682;2023-05-27T01:40:28;15.30;42.50
65568;DHT22;52211;50.154;8.682;2023-05-27T01:47:03;15.30;42.70
65568;DHT22;52211;50.154;8.682;2023-05-27T01:49:34;15.20;41.90
65568;DHT22;52211;50.154;8.682;2023-05-27T01:52:04;15.20;42.20
65568;DHT22;52211;50.154;8.682;2023-05-27T01:54:34;15.20;42.40
65568;DHT22;52211;50.154;8.682;2023-05-27T01:57:04;15.10;42.30
65568;DHT22;52211;50.154;8.682;2023-05-27T01:59:33;15.10;42.40
65568;DHT22;52211;50.154;8.682;2023-05-27T02:02:00;15.00;42.50
65568;DHT22;52211;50.154;8.682;2023-05-27T02:04:26;15.00;43.20
65568;DHT22;52211;50.154;8.682;2023-05-27T02:06:56;15.00;42.60
65568;DHT22;52211;50.154;8.682;2023-05-27T02:09:27;15.00;42.70
65568;DHT22;52211;50.154;8.682;2023-05-27T02:11:56;14.90;42.90
65568;DHT22;52211;50.154;8.682;2023-05-27T02:14:23;14.90;42.80
65568;DHT22;52211;50.154;8.682;2023-05-27T02:16:53;14.80;42.90
65568;DHT22;52211;50.154;8.682;2023-05-27T02:19:27;14.80;42.90
65568;DHT22;52211;50.154;8.682;2023-05-27T02:21:54;14.80;43.00
65568;DHT22;52211;50.154;8.682;2023-05-27T02:24:26;14.70;43.00
65568;DHT22;52211;50.154;8.682;2023-05-27T02:26:58;14.70;43.10
65568;DHT22;52211;50.154;8.682;2023-05-27T02:29:26;14.80;43.20
65568;DHT22;52211;50.154;8.682;2023-05-27T02:31:56;14.70;43.20
65568;DHT22;52211;50.154;8.682;2023-05-27T02:34:26;14.70;43.30
65568;DHT22;52211;50.154;8.682;2023-05-27T02:36:53;14.60;43.30
65568;DHT22;52211;50.154;8.682;2023-05-27T02:39:23;14.60;43.40
65568;DHT22;52211;50.154;8.682;2023-05-27T02:41:52;14.60;43.50
65568;DHT22;52211;50.154;8.682;2023-05-27T02:44:25;14.50;43.70
65568;DHT22;52211;50.154;8.682;2023-05-27T02:46:52;14.50;43.80
65568;DHT22;52211;50.154;8.682;2023-05-27T02:49:23;14.50;43.70
65568;DHT22;52211;50.154;8.682;2023-05-27T02:51:52;14.50;43.70
65568;DHT22;52211;50.154;8.682;2023-05-27T02:54:22;14.40;43.80
65568;DHT22;52211;50.154;8.682;2023-05-27T02:56:49;14.40;43.90
65568;DHT22;52211;50.154;8.682;2023-05-27T02:59:18;14.40;44.00
65568;DHT22;52211;50.154;8.682;2023-05-27T03:01:47;14.40;44.00
65568;DHT22;52211;50.154;8.682;2023-05-27T03:04:17;14.40;44.10
65568;DHT22;52211;50.154;8.682;2023-05-27T03:06:44;14.30;44.20
65568;DHT22;52211;50.154;8.682;2023-05-27T03:09:18;14.30;44.20
65568;DHT22;52211;50.154;8.682;2023-05-27T03:11:47;14.40;44.40
65568;DHT22;52211;50.154;8.682;2023-05-27T03:14:21;14.30;44.30
65568;DHT22;52211;50.154;8.682;2023-05-27T03:16:48;14.20;44.50
65568;DHT22;52211;50.154;8.682;2023-05-27T03:19:15;14.20;44.40
65568;DHT22;52211;50.154;8.682;2023-05-27T03:21:46;14.20;44.50
65568;DHT22;52211;50.154;8.682;2023-05-27T03:24:19;14.10;44.50
65568;DHT22;52211;50.154;8.682;2023-05-27T03:26:48;14.10;44.60
65568;DHT22;52211;50.154;8.682;2023-05-27T03:29:18;14.10;44.70
65568;DHT22;52211;50.154;8.682;2023-05-27T03:31:46;14.00;44.70
65568;DHT22;52211;50.154;8.682;2023-05-27T03:34:16;14.00;44.80
65568;DHT22;52211;50.154;8.682;2023-05-27T03:36:45;14.00;44.90
65568;DHT22;52211;50.154;8.682;2023-05-27T03:39:19;14.00;44.90
65568;DHT22;52211;50.154;8.682;2023-05-27T03:41:52;14.00;45.10
65568;DHT22;52211;50.154;8.682;2023-05-27T03:44:20;13.90;45.10
65568;DHT22;52211;50.154;8.682;2023-05-27T03:46:46;13.90;45.10
65568;DHT22;52211;50.154;8.682;2023-05-27T03:49:16;13.90;45.20
65568;DHT22;52211;50.154;8.682;2023-05-27T03:51:47;13.90;45.30
65568;DHT22;52211;50.154;8.682;2023-05-27T03:54:17;13.90;45.60
65568;DHT22;52211;50.154;8.682;2023-05-27T03:56:49;13.90;45.50
65568;DHT22;52211;50.154;8.682;2023-05-27T03:59:17;13.80;45.40
65568;DHT22;52211;50.154;8.682;2023-05-27T04:01:44;13.80;45.60
65568;DHT22;52211;50.154;8.682;2023-05-27T04:04:13;13.80;45.70
65568;DHT22;52211;50.154;8.682;2023-05-27T04:06:41;13.70;45.70
65568;DHT22;52211;50.154;8.682;2023-05-27T04:09:08;13.80;45.80
65568;DHT22;52211;50.154;8.682;2023-05-27T04:11:38;13.70;45.80
65568;DHT22;52211;50.154;8.682;2023-05-27T04:14:09;13.80;46.00
65568;DHT22;52211;50.154;8.682;2023-05-27T04:16:39;13.70;46.00
65568;DHT22;52211;50.154;8.682;2023-05-27T04:19:08;13.80;46.10
65568;DHT22;52211;50.154;8.682;2023-05-27T04:21:37;13.80;46.00
65568;DHT22;52211;50.154;8.682;2023-05-27T04:24:04;13.70;46.20
65568;DHT22;52211;50.154;8.682;2023-05-27T04:26:34;13.70;46.00
65568;DHT22;52211;50.154;8.682;2023-05-27T04:29:04;13.80;46.20
65568;DHT22;52211;50.154;8.682;2023-05-27T04:31:39;13.70;46.30
65568;DHT22;52211;50.154;8.682;2023-05-27T04:34:14;13.70;46.30
65568;DHT22;52211;50.154;8.682;2023-05-27T04:36:46;13.70;46.50
65568;DHT22;52211;50.154;8.682;2023-05-27T04:39:20;13.80;46.40
65568;DHT22;52211;50.154;8.682;2023-05-27T04:41:52;13.70;46.40
65568;DHT22;52211;50.154;8.682;2023-05-27T04:44:19;13.80;46.70
65568;DHT22;52211;50.154;8.682;2023-05-27T04:46:49;13.80;46.60
65568;DHT22;52211;50.154;8.682;2023-05-27T04:49:19;13.80;46.60
65568;DHT22;52211;50.154;8.682;2023-05-27T04:51:46;13.80;46.60
65568;DHT22;52211;50.154;8.682;2023-05-27T04:54:17;13.80;46.70
65568;DHT22;52211;50.154;8.682;2023-05-27T04:56:44;13.80;46.80
65568;DHT22;52211;50.154;8.682;2023-05-27T04:59:20;13.80;46.70
65568;DHT22;52211;50.154;8.682;2023-05-27T05:01:48;13.90;46.90
65568;DHT22;52211;50.154;8.682;2023-05-27T05:04:45;13.90;46.90
65568;DHT22;52211;50.154;8.682;2023-05-27T05:07:13;13.90;46.80
65568;DHT22;52211;50.154;8.682;2023-05-27T05:09:43;14.00;46.90
65568;DHT22;52211;50.154;8.682;2023-05-27T05:12:21;14.00;47.10
65568;DHT22;52211;50.154;8.682;2023-05-27T05:14:50;14.00;47.00
65568;DHT22;52211;50.154;8.682;2023-05-27T05:17:23;14.00;47.10
65568;DHT22;52211;50.154;8.682;2023-05-27T05:19:52;14.00;47.10
65568;DHT22;52211;50.154;8.682;2023-05-27T05:22:23;14.10;47.10
65568;DHT22;52211;50.154;8.682;2023-05-27T05:24:53;14.10;47.20
65568;DHT22;52211;50.154;8.682;2023-05-27T05:27:28;14.20;47.20
65568;DHT22;52211;50.154;8.682;2023-05-27T05:29:57;14.20;47.20
65568;DHT22;52211;50.154;8.682;2023-05-27T05:32:26;14.20;47.30
65568;DHT22;52211;50.154;8.682;2023-05-27T05:34:59;14.30;47.20
65568;DHT22;52211;50.154;8.682;2023-05-27T05:37:32;14.30;47.40
65568;DHT22;52211;50.154;8.682;2023-05-27T05:40:02;14.30;47.30
65568;DHT22;52211;50.154;8.682;2023-05-27T05:42:36;14.30;47.30
65568;DHT22;52211;50.154;8.682;2023-05-27T05:45:06;14.40;47.30
65568;DHT22;52211;50.154;8.682;2023-05-27T05:47:44;14.40;47.40
65568;DHT22;52211;50.154;8.682;2023-05-27T05:50:16;14.40;47.40
65568;DHT22;52211;50.154;8.682;2023-05-27T05:52:50;14.50;47.50
65568;DHT22;52211;50.154;8.682;2023-05-27T05:55:20;14.50;47.50
65568;DHT22;52211;50.154;8.682;2023-05-27T05:57:51;14.60;47.70
65568;DHT22;52211;50.154;8.682;2023-05-27T06:00:23;14.60;47.50
65568;DHT22;52211;50.154;8.682;2023-05-27T06:03:08;14.60;47.50
65568;DHT22;52211;50.154;8.682;2023-05-27T06:05:58;14.70;47.70
65568;DHT22;52211;50.154;8.682;2023-05-27T06:08:27;14.70;47.50
65568;DHT22;52211;50.154;8.682;2023-05-27T06:11:14;14.80;47.60
65568;DHT22;52211;50.154;8.682;2023-05-27T06:13:48;14.80;47.60
65568;DHT22;52211;50.154;8.682;2023-05-27T06:16:19;14.90;47.80
65568;DHT22;52211;50.154;8.682;2023-05-27T06:18:47;15.00;47.80
65568;DHT22;52211;50.154;8.682;2023-05-27T06:21:14;15.00;47.60
65568;DHT22;52211;50.154;8.682;2023-05-27T06:24:04;15.10;47.60
65568;DHT22;52211;50.154;8.682;2023-05-27T06:26:37;15.10;47.70
65568;DHT22;52211;50.154;8.682;2023-05-27T06:29:04;15.20;47.70
65568;DHT22;52211;50.154;8.682;2023-05-27T06:31:33;15.20;47.70
65568;DHT22;52211;50.154;8.682;2023-05-27T06:34:00;15.30;47.80
65568;DHT22;52211;50.154;8.682;2023-05-27T06:36:33;15.30;47.70
65568;DHT22;52211;50.154;8.682;2023-05-27T06:39:02;15.30;47.70
65568;DHT22;52211;50.154;8.682;2023-05-27T06:41:33;15.40;47.80
65568;DHT22;52211;50.154;8.682;2023-05-27T06:44:32;15.50;47.80
65568;DHT22;52211;50.154;8.682;2023-05-27T06:47:10;15.50;47.70
65568;DHT22;52211;50.154;8.682;2023-05-27T06:49:37;15.60;47.80
65568;DHT22;52211;50.154;8.682;2023-05-27T06:52:08;15.60;47.70
65568;DHT22;52211;50.154;8.682;2023-05-27T06:54:58;15.70;47.80
65568;DHT22;52211;50.154;8.682;2023-05-27T06:57:46;15.70;47.70
65568;DHT22;52211;50.154;8.682;2023-05-27T07:00:24;15.80;47.70
65568;DHT22;52211;50.154;8.682;2023-05-27T07:03:10;15.80;47.60
65568;DHT22;52211;50.154;8.682;2023-05-27T07:05:42;15.90;47.70
65568;DHT22;52211;50.154;8.682;2023-05-27T07:08:15;16.00;47.80
65568;DHT22;52211;50.154;8.682;2023-05-27T07:10:46;16.00;47.80
65568;DHT22;52211;50.154;8.682;2023-05-27T07:13:17;16.10;47.80
65568;DHT22;52211;50.154;8.682;2023-05-27T07:15:48;16.20;47.80
65568;DHT22;52211;50.154;8.682;2023-05-27T07:18:17;16.30;47.80
65568;DHT22;52211;50.154;8.682;2023-05-27T07:20:48;16.30;47.80
65568;DHT22;52211;50.154;8.682;2023-05-27T07:23:18;16.40;47.80
65568;DHT22;52211;50.154;8.682;2023-05-27T07:25:52;16.50;47.70
65568;DHT22;52211;50.154;8.682;2023-05-27T07:28:22;16.60;47.70
65568;DHT22;52211;50.154;8.682;2023-05-27T07:31:05;16.70;47.70
65568;DHT22;52211;50.154;8.682;2023-05-27T07:33:39;16.80;47.90
65568;DHT22;52211;50.154;8.682;2023-05-27T07:36:09;16.90;47.80
65568;DHT22;52211;50.154;8.682;2023-05-27T07:38:36;17.00;47.80
65568;DHT22;52211;50.154;8.682;2023-05-27T07:41:03;17.00;47.60
65568;DHT22;52211;50.154;8.682;2023-05-27T07:43:31;17.10;48.30
65568;DHT22;52211;50.154;8.682;2023-05-27T07:45:58;17.20;47.50
65568;DHT22;52211;50.154;8.682;2023-05-27T07:48:25;17.30;48.10
65568;DHT22;52211;50.154;8.682;2023-05-27T07:50:54;17.40;47.30
65568;DHT22;52211;50.154;8.682;2023-05-27T07:53:22;17.50;47.20
65568;DHT22;52211;50.154;8.682;2023-05-27T07:55:49;17.50;47.10
65568;DHT22;52211;50.154;8.682;2023-05-27T07:58:17;17.60;47.10
65568;DHT22;52211;50.154;8.682;2023-05-27T08:01:03;17.70;47.20
65568;DHT22;52211;50.154;8.682;2023-05-27T08:03:30;17.80;47.10
65568;DHT22;52211;50.154;8.682;2023-05-27T08:06:25;17.80;46.90
65568;DHT22;52211;50.154;8.682;2023-05-27T08:09:05;17.90;46.90
65568;DHT22;52211;50.154;8.682;2023-05-27T08:11:42;18.00;46.90
65568;DHT22;52211;50.154;8.682;2023-05-27T08:14:35;18.10;47.00
65568;DHT22;52211;50.154;8.682;2023-05-27T08:17:20;18.20;46.90
65568;DHT22;52211;50.154;8.682;2023-05-27T08:20:17;18.30;46.80
65568;DHT22;52211;50.154;8.682;2023-05-27T08:22:55;18.30;46.70
65568;DHT22;52211;50.154;8.682;2023-05-27T08:25:43;18.40;46.70
65568;DHT22;52211;50.154;8.682;2023-05-27T08:28:30;18.50;46.70
65568;DHT22;52211;50.154;8.682;2023-05-27T08:31:31;18.60;46.70
65568;DHT22;52211;50.154;8.682;2023-05-27T08:34:02;18.70;46.60
65568;DHT22;52211;50.154;8.682;2023-05-27T08:36:32;18.80;46.50
65568;DHT22;52211;50.154;8.682;2023-05-27T08:38:59;18.90;46.50
65568;DHT22;52211;50.154;8.682;2023-05-27T08:41:31;19.00;46.50
65568;DHT22;52211;50.154;8.682;2023-05-27T08:44:04;19.10;46.40
65568;DHT22;52211;50.154;8.682;2023-05-27T08:46:51;19.20;46.30
65568;DHT22;52211;50.154;8.682;2023-05-27T08:49:21;19.30;46.30
65568;DHT22;52211;50.154;8.682;2023-05-27T08:51:50;19.40;46.20
65568;DHT22;52211;50.154;8.682;2023-05-27T08:54:26;19.50;46.20
65568;DHT22;52211;50.154;8.682;2023-05-27T08:56:59;19.60;46.10
65568;DHT22;52211;50.154;8.682;2023-05-27T08:59:34;19.70;46.00
65568;DHT22;52211;50.154;8.682;2023-05-27T09:02:04;19.80;45.90
65568;DHT22;52211;50.154;8.682;2023-05-27T09:04:39;19.90;46.00
65568;DHT22;52211;50.154;8.682;2023-05-27T09:07:08;20.00;45.80
65568;DHT22;52211;50.154;8.682;2023-05-27T09:09:38;20.10;45.60
65568;DHT22;52211;50.154;8.682;2023-05-27T09:12:11;20.20;45.60
65568;DHT22;52211;50.154;8.682;2023-05-27T09:14:49;20.30;45.50
65568;DHT22;52211;50.154;8.682;2023-05-27T09:17:22;20.40;45.50
65568;DHT22;52211;50.154;8.682;2023-05-27T09:19:54;20.50;45.30
65568;DHT22;52211;50.154;8.682;2023-05-27T09:22:33;20.60;45.30
65568;DHT22;52211;50.154;8.682;2023-05-27T09:25:01;20.70;45.10
65568;DHT22;52211;50.154;8.682;2023-05-27T09:27:32;20.80;45.20
65568;DHT22;52211;50.154;8.682;2023-05-27T09:30:06;20.90;45.00
65568;DHT22;52211;50.154;8.682;2023-05-27T09:32:35;21.10;45.00
65568;DHT22;52211;50.154;8.682;2023-05-27T09:35:05;21.20;45.00
65568;DHT22;52211;50.154;8.682;2023-05-27T09:37:36;21.20;44.40
65568;DHT22;52211;50.154;8.682;2023-05-27T09:40:07;21.30;44.30
65568;DHT22;52211;50.154;8.682;2023-05-27T09:42:44;21.40;44.20
65568;DHT22;52211;50.154;8.682;2023-05-27T09:45:19;21.50;44.00
65568;DHT22;52211;50.154;8.682;2023-05-27T09:47:52;21.60;43.90
65568;DHT22;52211;50.154;8.682;2023-05-27T09:50:22;21.70;44.00
65568;DHT22;52211;50.154;8.682;2023-05-27T09:52:52;21.80;43.90
65568;DHT22;52211;50.154;8.682;2023-05-27T09:55:39;21.90;43.70
65568;DHT22;52211;50.154;8.682;2023-05-27T09:58:12;21.90;43.50
65568;DHT22;52211;50.154;8.682;2023-05-27T10:00:46;22.10;43.50
65568;DHT22;52211;50.154;8.682;2023-05-27T10:03:23;22.10;43.20
65568;DHT22;52211;50.154;8.682;2023-05-27T10:05:55;22.20;42.90
65568;DHT22;52211;50.154;8.682;2023-05-27T10:08:25;22.20;42.90
65568;DHT22;52211;50.154;8.682;2023-05-27T10:10:54;22.40;43.10
65568;DHT22;52211;50.154;8.682;2023-05-27T10:13:23;22.40;43.00
65568;DHT22;52211;50.154;8.682;2023-05-27T10:15:52;22.50;43.00
65568;DHT22;52211;50.154;8.682;2023-05-27T10:18:26;22.60;43.00
65568;DHT22;52211;50.154;8.682;2023-05-27T10:21:03;22.70;42.70
65568;DHT22;52211;50.154;8.682;2023-05-27T10:23:33;22.80;42.50
65568;DHT22;52211;50.154;8.682;2023-05-27T10:31:18;23.20;42.60
65568;DHT22;52211;50.154;8.682;2023-05-27T10:33:53;23.30;41.90
65568;DHT22;52211;50.154;8.682;2023-05-27T10:36:31;23.40;42.90
65568;DHT22;52211;50.154;8.682;2023-05-27T10:39:05;23.60;41.80
65568;DHT22;52211;50.154;8.682;2023-05-27T10:41:55;23.80;42.00
65568;DHT22;52211;50.154;8.682;2023-05-27T10:44:33;24.00;41.80
65568;DHT22;52211;50.154;8.682;2023-05-27T10:49:45;24.30;41.40
65568;DHT22;52211;50.154;8.682;2023-05-27T10:52:18;24.50;41.10
65568;DHT22;52211;50.154;8.682;2023-05-27T10:54:46;24.70;41.10
65568;DHT22;52211;50.154;8.682;2023-05-27T10:57:18;25.00;41.10
65568;DHT22;52211;50.154;8.682;2023-05-27T10:59:53;25.20;41.10
65568;DHT22;52211;50.154;8.682;2023-05-27T11:02:30;25.50;40.70
65568;DHT22;52211;50.154;8.682;2023-05-27T11:05:10;25.70;40.40
65568;DHT22;52211;50.154;8.682;2023-05-27T11:07:43;25.90;40.10
65568;DHT22;52211;50.154;8.682;2023-05-27T11:10:10;26.20;40.30
65568;DHT22;52211;50.154;8.682;2023-05-27T11:12:43;26.40;40.10
65568;DHT22;52211;50.154;8.682;2023-05-27T11:15:12;26.60;39.70
65568;DHT22;52211;50.154;8.682;2023-05-27T11:17:38;26.90;39.60
65568;DHT22;52211;50.154;8.682;2023-05-27T11:20:06;27.10;39.30
65568;DHT22;52211;50.154;8.682;2023-05-27T11:22:35;27.30;38.80
65568;DHT22;52211;50.154;8.682;2023-05-27T11:25:04;27.50;38.90
65568;DHT22;52211;50.154;8.682;2023-05-27T11:27:41;27.80;38.70
65568;DHT22;52211;50.154;8.682;2023-05-27T11:30:11;28.00;38.00
65568;DHT22;52211;50.154;8.682;2023-05-27T11:32:42;28.30;38.00
65568;DHT22;52211;50.154;8.682;2023-05-27T11:35:15;28.60;37.90
65568;DHT22;52211;50.154;8.682;2023-05-27T11:37:50;28.90;38.20
65568;DHT22;52211;50.154;8.682;2023-05-27T11:40:20;29.20;37.70
65568;DHT22;52211;50.154;8.682;2023-05-27T11:42:50;29.50;37.80
65568;DHT22;52211;50.154;8.682;2023-05-27T11:45:20;29.70;37.60
65568;DHT22;52211;50.154;8.682;2023-05-27T11:47:49;30.00;37.40
65568;DHT22;52211;50.154;8.682;2023-05-27T11:50:24;30.30;36.90
65568;DHT22;52211;50.154;8.682;2023-05-27T11:52:56;30.50;36.70
65568;DHT22;52211;50.154;8.682;2023-05-27T11:55:27;30.70;35.90
65568;DHT22;52211;50.154;8.682;2023-05-27T11:57:56;31.00;36.10
65568;DHT22;52211;50.154;8.682;2023-05-27T12:00:27;31.20;35.80
65568;DHT22;52211;50.154;8.682;2023-05-27T12:03:01;31.40;35.20
65568;DHT22;52211;50.154;8.682;2023-05-27T12:05:31;31.60;35.30
65568;DHT22;52211;50.154;8.682;2023-05-27T12:08:01;31.90;35.00
65568;DHT22;52211;50.154;8.682;2023-05-27T12:10:28;32.10;34.90
65568;DHT22;52211;50.154;8.682;2023-05-27T12:13:07;32.30;34.70
65568;DHT22;52211;50.154;8.682;2023-05-27T12:15:39;32.50;33.90
65568;DHT22;52211;50.154;8.682;2023-05-27T12:18:06;32.70;33.90
65568;DHT22;52211;50.154;8.682;2023-05-27T12:20:37;32.90;34.00
65568;DHT22;52211;50.154;8.682;2023-05-27T12:23:09;33.00;33.70
65568;DHT22;52211;50.154;8.682;2023-05-27T12:25:39;33.20;33.10
65568;DHT22;52211;50.154;8.682;2023-05-27T12:28:12;33.40;33.00
65568;DHT22;52211;50.154;8.682;2023-05-27T12:30:46;33.50;32.60
65568;DHT22;52211;50.154;8.682;2023-05-27T12:33:17;33.70;32.70
65568;DHT22;52211;50.154;8.682;2023-05-27T12:35:47;33.80;31.90
65568;DHT22;52211;50.154;8.682;2023-05-27T12:38:14;34.00;32.90
65568;DHT22;52211;50.154;8.682;2023-05-27T12:40:46;34.10;31.80
65568;DHT22;52211;50.154;8.682;2023-05-27T12:43:15;34.20;31.40
65568;DHT22;52211;50.154;8.682;2023-05-27T12:45:48;34.30;31.30
65568;DHT22;52211;50.154;8.682;2023-05-27T12:48:15;34.40;31.50
65568;DHT22;52211;50.154;8.682;2023-05-27T12:50:46;34.50;30.90
65568;DHT22;52211;50.154;8.682;2023-05-27T12:53:16;34.60;30.80
65568;DHT22;52211;50.154;8.682;2023-05-27T12:55:46;34.70;30.70
65568;DHT22;52211;50.154;8.682;2023-05-27T12:58:16;34.80;30.50
65568;DHT22;52211;50.154;8.682;2023-05-27T13:00:47;35.00;30.40
65568;DHT22;52211;50.154;8.682;2023-05-27T13:03:15;35.00;30.00
65568;DHT22;52211;50.154;8.682;2023-05-27T13:05:45;35.20;30.20
65568;DHT22;52211;50.154;8.682;2023-05-27T13:08:12;35.30;29.90
65568;DHT22;52211;50.154;8.682;2023-05-27T13:10:42;35.40;29.90
65568;DHT22;52211;50.154;8.682;2023-05-27T13:13:14;35.50;29.60
65568;DHT22;52211;50.154;8.682;2023-05-27T13:15:47;35.70;29.60
65568;DHT22;52211;50.154;8.682;2023-05-27T13:18:16;35.80;29.50
65568;DHT22;52211;50.154;8.682;2023-05-27T13:20:43;35.90;29.50
65568;DHT22;52211;50.154;8.682;2023-05-27T13:23:14;36.10;29.40
65568;DHT22;52211;50.154;8.682;2023-05-27T13:25:43;36.20;29.20
65568;DHT22;52211;50.154;8.682;2023-05-27T13:28:12;36.30;29.00
65568;DHT22;52211;50.154;8.682;2023-05-27T13:30:41;36.30;28.90
65568;DHT22;52211;50.154;8.682;2023-05-27T13:33:13;36.50;28.90
65568;DHT22;52211;50.154;8.682;2023-05-27T13:35:42;36.60;28.80
65568;DHT22;52211;50.154;8.682;2023-05-27T13:38:11;36.70;28.40
65568;DHT22;52211;50.154;8.682;2023-05-27T13:40:45;36.70;28.20
65568;DHT22;52211;50.154;8.682;2023-05-27T13:43:14;36.70;28.20
65568;DHT22;52211;50.154;8.682;2023-05-27T13:45:43;36.70;27.80
65568;DHT22;52211;50.154;8.682;2023-05-27T13:48:12;36.80;28.10
65568;DHT22;52211;50.154;8.682;2023-05-27T13:50:42;36.80;27.70
65568;DHT22;52211;50.154;8.682;2023-05-27T13:53:09;36.80;27.70
65568;DHT22;52211;50.154;8.682;2023-05-27T13:55:36;36.80;27.60
65568;DHT22;52211;50.154;8.682;2023-05-27T13:58:05;36.90;27.60
65568;DHT22;52211;50.154;8.682;2023-05-27T14:00:37;37.00;27.40
65568;DHT22;52211;50.154;8.682;2023-05-27T14:03:04;37.00;27.40
65568;DHT22;52211;50.154;8.682;2023-05-27T14:05:31;37.00;27.20
65568;DHT22;52211;50.154;8.682;2023-05-27T14:08:00;37.10;27.30
65568;DHT22;52211;50.154;8.682;2023-05-27T14:10:31;37.10;27.20
65568;DHT22;52211;50.154;8.682;2023-05-27T14:13:05;37.10;27.00
65568;DHT22;52211;50.154;8.682;2023-05-27T14:15:32;37.10;27.00
65568;DHT22;52211;50.154;8.682;2023-05-27T14:18:00;37.10;26.90
65568;DHT22;52211;50.154;8.682;2023-05-27T14:20:33;37.30;27.00
65568;DHT22;52211;50.154;8.682;2023-05-27T14:23:00;37.30;26.60
65568;DHT22;52211;50.154;8.682;2023-05-27T14:25:30;37.30;26.50
65568;DHT22;52211;50.154;8.682;2023-05-27T14:27:59;37.30;26.30
65568;DHT22;52211;50.154;8.682;2023-05-27T14:30:30;37.20;26.20
65568;DHT22;52211;50.154;8.682;2023-05-27T14:33:08;37.10;26.30
65568;DHT22;52211;50.154;8.682;2023-05-27T14:35:39;37.00;26.20
65568;DHT22;52211;50.154;8.682;2023-05-27T14:38:17;37.00;26.10
65568;DHT22;52211;50.154;8.682;2023-05-27T14:40:46;36.90;26.10
65568;DHT22;52211;50.154;8.682;2023-05-27T14:43:16;36.90;26.10
65568;DHT22;52211;50.154;8.682;2023-05-27T14:45:43;36.90;26.10
65568;DHT22;52211;50.154;8.682;2023-05-27T14:48:12;36.90;26.00
65568;DHT22;52211;50.154;8.682;2023-05-27T14:50:43;36.90;26.00
65568;DHT22;52211;50.154;8.682;2023-05-27T14:53:15;36.80;25.80
65568;DHT22;52211;50.154;8.682;2023-05-27T14:55:43;36.80;25.80
65568;DHT22;52211;50.154;8.682;2023-05-27T14:58:12;36.80;25.60
65568;DHT22;52211;50.154;8.682;2023-05-27T15:00:40;36.70;25.60
65568;DHT22;52211;50.154;8.682;2023-05-27T15:03:12;36.80;25.60
65568;DHT22;52211;50.154;8.682;2023-05-27T15:05:45;36.70;25.40
65568;DHT22;52211;50.154;8.682;2023-05-27T15:08:14;36.70;25.30
65568;DHT22;52211;50.154;8.682;2023-05-27T15:10:44;36.60;25.40
65568;DHT22;52211;50.154;8.682;2023-05-27T15:13:18;36.70;25.30
65568;DHT22;52211;50.154;8.682;2023-05-27T15:15:48;36.60;25.20
65568;DHT22;52211;50.154;8.682;2023-05-27T15:18:16;36.60;25.30
65568;DHT22;52211;50.154;8.682;2023-05-27T15:20:43;36.60;25.30
65568;DHT22;52211;50.154;8.682;2023-05-27T15:23:10;36.60;25.30
65568;DHT22;52211;50.154;8.682;2023-05-27T15:25:37;36.60;25.30
65568;DHT22;52211;50.154;8.682;2023-05-27T15:28:11;36.50;25.10
65568;DHT22;52211;50.154;8.682;2023-05-27T15:30:43;36.50;24.90
65568;DHT22;52211;50.154;8.682;2023-05-27T15:33:15;36.50;25.10
65568;DHT22;52211;50.154;8.682;2023-05-27T15:35:44;36.50;24.90
65568;DHT22;52211;50.154;8.682;2023-05-27T15:38:14;36.40;25.00
65568;DHT22;52211;50.154;8.682;2023-05-27T15:40:41;36.40;25.00
65568;DHT22;52211;50.154;8.682;2023-05-27T15:43:11;36.30;24.90
65568;DHT22;52211;50.154;8.682;2023-05-27T15:45:39;36.30;24.90
65568;DHT22;52211;50.154;8.682;2023-05-27T15:48:21;36.30;24.90
65568;DHT22;52211;50.154;8.682;2023-05-27T15:50:53;36.30;25.00
65568;DHT22;52211;50.154;8.682;2023-05-27T15:53:23;36.30;25.00
65568;DHT22;52211;50.154;8.682;2023-05-27T15:55:52;36.30;25.40
65568;DHT22;52211;50.154;8.682;2023-05-27T15:58:19;36.20;25.40
65568;DHT22;52211;50.154;8.682;2023-05-27T16:00:48;36.20;24.90
65568;DHT22;52211;50.154;8.682;2023-05-27T16:03:22;36.10;25.40
65568;DHT22;52211;50.154;8.682;2023-05-27T16:05:54;36.10;24.90
65568;DHT22;52211;50.154;8.682;2023-05-27T16:08:21;36.00;24.90
65568;DHT22;52211;50.154;8.682;2023-05-27T16:10:52;36.00;24.80
65568;DHT22;52211;50.154;8.682;2023-05-27T16:13:25;35.80;24.40
65568;DHT22;52211;50.154;8.682;2023-05-27T16:15:55;35.50;24.40
65568;DHT22;52211;50.154;8.682;2023-05-27T16:18:23;35.20;24.40